createdAt,value
2019-04-30T00:02:02.132Z,6.50
2019-04-30T00:04:29.855Z,7.00
2019-04-30T00:06:57.160Z,7.85
2019-04-30T00:09:25.111Z,8.18
2019-04-30T00:11:57.871Z,7.60
2019-04-30T00:14:20.224Z,7.80
2019-04-30T00:16:46.818Z,6.80
2019-04-30T00:19:15.734Z,5.12
2019-04-30T00:21:41.729Z,5.40
2019-04-30T00:24:10.258Z,5.80
2019-04-30T00:26:39.939Z,5.33
2019-04-30T00:29:05.166Z,5.55
2019-04-30T00:31:31.935Z,6.10
2019-04-30T00:34:01.333Z,5.20
2019-04-30T00:36:28.253Z,4.78
2019-04-30T00:38:55.131Z,5.58
2019-04-30T00:41:21.716Z,4.80
2019-04-30T00:43:50.738Z,5.75
2019-04-30T00:46:17.323Z,6.97
2019-04-30T00:48:45.614Z,6.03
2019-04-30T00:51:17.874Z,4.92
2019-04-30T00:53:43.971Z,6.00
2019-04-30T00:56:08.954Z,5.35
2019-04-30T00:58:35.758Z,6.10
2019-04-30T01:01:04.878Z,6.10
2019-04-30T01:03:30.741Z,6.72
2019-04-30T01:05:57.323Z,5.95
2019-04-30T01:08:27.157Z,5.92
2019-04-30T01:10:52.220Z,5.83
2019-04-30T01:13:19.185Z,5.78
2019-04-30T01:15:49.033Z,5.90
2019-04-30T01:18:14.299Z,6.08
2019-04-30T01:20:40.878Z,5.75
2019-04-30T01:23:11.195Z,5.15
2019-04-30T01:25:35.787Z,4.35
2019-04-30T01:28:02.395Z,4.50
2019-04-30T01:30:28.969Z,6.28
2019-04-30T01:32:56.969Z,4.45
2019-04-30T01:35:28.283Z,5.55
2019-04-30T01:37:52.206Z,5.90
2019-04-30T01:40:19.047Z,5.58
2019-04-30T01:42:48.518Z,5.15
2019-04-30T01:45:14.166Z,5.83
2019-04-30T01:47:40.779Z,5.78
2019-04-30T01:50:09.111Z,4.62
2019-04-30T01:52:36.168Z,5.03
2019-04-30T01:55:02.846Z,5.35
2019-04-30T01:57:29.453Z,5.85
2019-04-30T01:59:56.079Z,4.90
2019-04-30T02:02:22.649Z,5.47
2019-04-30T02:04:49.272Z,5.17
2019-04-30T02:07:15.921Z,4.67
2019-04-30T02:09:42.519Z,5.80
2019-04-30T02:12:09.434Z,4.97
2019-04-30T02:14:36.057Z,4.90
2019-04-30T02:17:02.650Z,5.70
2019-04-30T02:19:31.212Z,5.85
2019-04-30T02:21:58.564Z,5.53
2019-04-30T02:24:25.232Z,4.42
2019-04-30T02:26:51.803Z,5.80
2019-04-30T02:29:19.146Z,4.92
2019-04-30T02:31:45.778Z,5.25
2019-04-30T02:34:12.396Z,6.00
2019-04-30T02:36:40.372Z,5.03
2019-04-30T02:39:07.227Z,5.35
2019-04-30T02:41:33.799Z,5.45
2019-04-30T02:44:00.434Z,4.65
2019-04-30T02:46:31.916Z,5.35
2019-04-30T02:48:55.330Z,4.92
2019-04-30T02:51:22.871Z,4.80
2019-04-30T02:53:50.514Z,5.60
2019-04-30T02:56:20.194Z,4.83
2019-04-30T02:58:45.823Z,6.03
2019-04-30T03:01:12.436Z,4.95
2019-04-30T03:03:39.707Z,5.97
2019-04-30T03:06:07.354Z,4.62
2019-04-30T03:08:33.979Z,4.97
2019-04-30T03:11:00.599Z,5.72
2019-04-30T03:13:29.726Z,5.83
2019-04-30T03:15:55.507Z,6.90
2019-04-30T03:18:22.986Z,5.22
2019-04-30T03:20:49.957Z,4.78
2019-04-30T03:23:19.385Z,5.97
2019-04-30T03:25:44.936Z,5.28
2019-04-30T03:28:11.521Z,5.67
2019-04-30T03:30:41.910Z,6.00
2019-04-30T03:33:06.429Z,4.87
2019-04-30T03:35:33.035Z,6.20
2019-04-30T03:37:59.672Z,6.05
2019-04-30T03:40:26.285Z,5.40
2019-04-30T03:42:52.854Z,5.90
2019-04-30T03:45:20.586Z,5.53
2019-04-30T03:47:50.224Z,4.37
2019-04-30T03:50:15.576Z,4.65
2019-04-30T03:52:42.142Z,5.28
2019-04-30T03:55:09.328Z,5.20
2019-04-30T03:57:36.099Z,5.78
2019-04-30T04:00:02.723Z,5.47
2019-04-30T04:02:30.230Z,6.22
2019-04-30T04:04:57.066Z,5.90
2019-04-30T04:07:23.634Z,7.58
2019-04-30T04:09:50.219Z,6.20
2019-04-30T04:12:16.848Z,6.17
2019-04-30T04:14:44.074Z,7.00
2019-04-30T04:17:10.665Z,6.70
2019-04-30T04:19:39.297Z,6.85
2019-04-30T04:22:05.571Z,5.92
2019-04-30T04:24:32.148Z,6.20
2019-04-30T04:26:59.640Z,4.90
2019-04-30T04:29:29.636Z,6.28
2019-04-30T04:31:54.757Z,4.72
2019-04-30T04:34:21.349Z,5.33
2019-04-30T04:36:50.501Z,5.65
2019-04-30T04:39:16.242Z,5.58
2019-04-30T04:41:44.317Z,4.72
2019-04-30T04:44:13.037Z,5.80
2019-04-30T04:46:40.178Z,5.87
2019-04-30T04:49:08.951Z,3.85
2019-04-30T04:51:39.539Z,5.87
2019-04-30T04:54:03.601Z,4.08
2019-04-30T04:56:30.543Z,4.78
2019-04-30T04:58:59.980Z,4.53
2019-04-30T05:01:25.675Z,4.67
2019-04-30T05:03:52.250Z,4.47
2019-04-30T05:06:21.992Z,4.28
2019-04-30T05:08:47.139Z,5.10
2019-04-30T05:11:13.762Z,3.77
2019-04-30T05:13:40.340Z,3.98
2019-04-30T05:16:09.084Z,3.75
2019-04-30T05:18:35.260Z,4.60
2019-04-30T05:21:01.874Z,4.30
2019-04-30T05:23:29.909Z,3.70
2019-04-30T05:25:58.829Z,3.92
2019-04-30T05:28:24.976Z,4.37
2019-04-30T05:30:51.558Z,4.30
2019-04-30T05:33:18.609Z,4.35
2019-04-30T05:35:45.443Z,4.35
2019-04-30T05:38:12.045Z,4.45
2019-04-30T05:40:39.821Z,4.30
2019-04-30T05:43:09.030Z,4.62
2019-04-30T05:45:35.255Z,3.30
2019-04-30T05:48:01.871Z,4.72
2019-04-30T05:50:29.582Z,4.22
2019-04-30T05:52:56.412Z,5.45
2019-04-30T05:55:22.998Z,4.90
2019-04-30T05:57:56.033Z,4.42
2019-04-30T06:00:19.055Z,4.65
2019-04-30T06:02:45.903Z,4.50
2019-04-30T06:05:12.596Z,3.90
2019-04-30T06:07:39.596Z,3.25
2019-04-30T06:10:06.348Z,2.25
2019-04-30T06:12:32.953Z,2.00
2019-04-30T06:14:59.531Z,1.40
2019-04-30T06:17:26.144Z,1.40
2019-04-30T06:19:52.715Z,1.72
2019-04-30T06:22:19.322Z,1.20
2019-04-30T06:24:45.925Z,0.88
2019-04-30T06:27:12.493Z,1.10
2019-04-30T06:29:39.181Z,1.72
2019-04-30T06:32:05.749Z,0.95
2019-04-30T06:34:32.358Z,1.02
2019-04-30T06:36:59.586Z,1.07
2019-04-30T06:39:26.341Z,0.80
2019-04-30T06:42:04.052Z,1.00
2019-04-30T06:44:21.282Z,0.90
2019-04-30T06:46:48.805Z,0.70
2019-04-30T06:49:15.506Z,0.57
2019-04-30T06:51:42.111Z,1.00
2019-04-30T06:54:10.993Z,0.82
2019-04-30T06:56:38.731Z,1.07
2019-04-30T06:59:05.423Z,1.40
2019-04-30T07:01:31.993Z,1.00
2019-04-30T07:04:00.807Z,1.10
2019-04-30T07:06:30.420Z,1.07
2019-04-30T07:08:57.007Z,1.50
2019-04-30T07:11:23.613Z,2.02
2019-04-30T07:13:52.189Z,2.10
2019-04-30T07:16:19.022Z,1.80
2019-04-30T07:18:45.695Z,1.62
2019-04-30T07:21:12.267Z,1.42
2019-04-30T07:23:38.867Z,1.50
2019-04-30T07:26:05.437Z,1.50
2019-04-30T07:28:43.253Z,1.15
2019-04-30T07:31:11.785Z,1.15
2019-04-30T07:33:29.623Z,1.40
2019-04-30T07:35:56.236Z,1.45
2019-04-30T07:38:22.799Z,1.57
2019-04-30T07:40:49.402Z,1.10
2019-04-30T07:43:15.965Z,1.15
2019-04-30T07:45:42.586Z,1.70
2019-04-30T07:48:09.462Z,2.05
2019-04-30T07:50:36.747Z,2.10
2019-04-30T07:55:31.997Z,1.50
2019-04-30T07:57:59.183Z,1.65
2019-04-30T08:00:26.163Z,2.10
2019-04-30T08:02:52.756Z,1.95
2019-04-30T08:05:19.999Z,1.40
2019-04-30T08:07:48.818Z,1.50
2019-04-30T08:09:36.837Z,1.92
2019-04-30T08:10:15.017Z,1.47
2019-04-30T08:12:43.512Z,1.62
2019-04-30T08:15:09.939Z,2.42
2019-04-30T08:17:36.510Z,1.45
2019-04-30T08:20:03.122Z,1.20
2019-04-30T08:22:29.804Z,1.50
2019-04-30T08:24:58.566Z,1.27
2019-04-30T08:27:24.876Z,1.57
2019-04-30T08:29:51.562Z,1.27
2019-04-30T08:32:19.098Z,1.07
2019-04-30T08:34:45.862Z,1.00
2019-04-30T08:37:17.472Z,1.20
2019-04-30T08:39:40.749Z,1.15
2019-04-30T08:42:08.982Z,1.10
2019-04-30T08:44:35.715Z,0.85
2019-04-30T08:47:02.331Z,1.30
2019-04-30T08:49:30.372Z,0.90
2019-04-30T08:51:58.685Z,0.98
2019-04-30T08:54:25.410Z,1.10
2019-04-30T08:56:52.004Z,1.22
2019-04-30T08:59:19.527Z,1.40
2019-04-30T09:01:46.258Z,1.15
2019-04-30T09:04:12.861Z,1.17
2019-04-30T09:06:39.973Z,1.27
2019-04-30T09:09:06.795Z,0.98
2019-04-30T09:11:43.094Z,0.98
2019-04-30T09:14:01.693Z,1.00
2019-04-30T09:16:29.487Z,0.82
2019-04-30T09:18:56.163Z,1.00
2019-04-30T09:21:22.756Z,1.27
2019-04-30T09:23:52.370Z,2.00
2019-04-30T09:26:18.848Z,1.27
2019-04-30T09:28:45.468Z,1.85
2019-04-30T09:31:12.079Z,1.67
2019-04-30T09:33:39.374Z,1.32
2019-04-30T09:36:06.043Z,1.30
2019-04-30T09:38:32.616Z,1.45
2019-04-30T09:40:59.538Z,1.92
2019-04-30T09:43:26.186Z,1.42
2019-04-30T09:45:52.785Z,1.22
2019-04-30T09:48:19.379Z,1.50
2019-04-30T09:50:46.343Z,1.20
2019-04-30T09:53:13.302Z,1.27
2019-04-30T09:55:40.582Z,1.55
2019-04-30T09:58:16.255Z,1.40
2019-04-30T10:00:35.529Z,1.10
2019-04-30T10:03:02.306Z,1.70
2019-04-30T10:05:29.363Z,1.70
2019-04-30T10:07:56.040Z,1.42
2019-04-30T10:10:22.630Z,1.40
2019-04-30T10:12:49.372Z,1.10
2019-04-30T10:15:15.980Z,2.17
2019-04-30T10:17:42.592Z,1.32
2019-04-30T10:20:09.165Z,1.40
2019-04-30T10:22:35.763Z,0.90
2019-04-30T10:25:02.411Z,0.90
2019-04-30T10:27:29.476Z,1.80
2019-04-30T10:29:56.152Z,1.65
2019-04-30T10:32:22.756Z,1.37
2019-04-30T10:34:49.333Z,2.00
2019-04-30T10:37:15.953Z,3.05
2019-04-30T10:39:42.526Z,2.55
2019-04-30T10:42:09.252Z,2.08
2019-04-30T10:44:35.822Z,1.92
2019-04-30T10:47:02.432Z,2.35
2019-04-30T10:49:29.327Z,2.12
2019-04-30T10:51:56.103Z,1.98
2019-04-30T10:54:25.775Z,1.85
2019-04-30T10:56:51.451Z,2.60
2019-04-30T10:59:18.156Z,2.10
2019-04-30T11:01:44.766Z,1.87
2019-04-30T11:04:11.339Z,2.10
2019-04-30T11:06:38.585Z,2.12
2019-04-30T11:09:05.193Z,2.10
2019-04-30T11:11:31.790Z,2.17
2019-04-30T11:13:58.359Z,2.02
2019-04-30T11:16:24.972Z,2.70
2019-04-30T11:18:51.800Z,1.85
2019-04-30T11:21:19.699Z,2.35
2019-04-30T11:23:46.651Z,1.87
2019-04-30T11:26:13.831Z,2.10
2019-04-30T11:28:41.034Z,2.15
2019-04-30T11:31:07.933Z,1.95
2019-04-30T11:33:35.233Z,2.40
2019-04-30T11:36:04.916Z,3.30
2019-04-30T11:38:30.395Z,3.22
2019-04-30T11:40:58.458Z,3.70
2019-04-30T11:43:25.165Z,14.03
2019-04-30T11:45:51.763Z,12.33
2019-04-30T11:48:19.098Z,27.00
2019-04-30T11:50:45.711Z,13.70
2019-04-30T11:53:24.612Z,12.75
2019-04-30T11:55:40.627Z,19.60
2019-04-30T11:58:07.226Z,13.03
2019-04-30T12:00:33.810Z,25.52
2019-04-30T12:03:00.419Z,17.67
2019-04-30T12:05:28.902Z,35.98
2019-04-30T12:07:55.325Z,23.60
2019-04-30T12:10:21.905Z,38.83
2019-04-30T12:12:48.744Z,26.90
2019-04-30T12:15:15.467Z,26.70
2019-04-30T12:17:42.047Z,7.28
2019-04-30T12:20:10.535Z,5.22
2019-04-30T12:22:37.112Z,7.95
2019-04-30T12:25:05.516Z,9.75
2019-04-30T12:27:32.039Z,4.75
2019-04-30T12:29:59.471Z,7.67
2019-04-30T12:32:26.176Z,4.97
2019-04-30T12:34:52.782Z,3.45
2019-04-30T12:37:19.354Z,3.35
2019-04-30T12:39:45.951Z,2.80
2019-04-30T12:42:12.531Z,3.37
2019-04-30T12:44:40.065Z,3.10
2019-04-30T12:47:06.817Z,3.83
2019-04-30T12:49:33.427Z,3.60
2019-04-30T12:52:00.003Z,3.15
2019-04-30T12:54:26.604Z,3.60
2019-04-30T12:56:53.171Z,3.67
2019-04-30T12:59:19.764Z,3.35
2019-04-30T13:01:46.341Z,3.67
2019-04-30T13:04:12.956Z,3.55
2019-04-30T13:06:39.905Z,3.80
2019-04-30T13:09:09.510Z,3.52
2019-04-30T13:11:35.649Z,4.10
2019-04-30T13:14:03.026Z,4.37
2019-04-30T13:16:29.930Z,3.60
2019-04-30T13:18:56.545Z,3.35
2019-04-30T13:21:23.158Z,2.80
2019-04-30T13:23:49.758Z,3.60
2019-04-30T13:26:16.330Z,2.95
2019-04-30T13:28:42.930Z,3.55
2019-04-30T13:31:10.190Z,3.40
2019-04-30T13:33:39.539Z,3.12
2019-04-30T13:36:06.357Z,2.77
2019-04-30T13:38:45.196Z,3.00
2019-04-30T13:41:02.186Z,2.95
2019-04-30T13:43:28.757Z,3.40
2019-04-30T13:45:55.365Z,2.77
2019-04-30T13:48:22.107Z,3.22
2019-04-30T13:50:48.778Z,3.40
2019-04-30T13:53:15.342Z,2.92
2019-04-30T13:55:45.579Z,4.00
2019-04-30T13:58:10.275Z,3.60
2019-04-30T14:00:36.922Z,3.90
2019-04-30T14:03:03.510Z,2.95
2019-04-30T14:05:30.112Z,3.10
2019-04-30T14:07:56.691Z,3.42
2019-04-30T14:10:23.286Z,4.17
2019-04-30T14:12:49.863Z,3.95
2019-04-30T14:15:16.475Z,3.98
2019-04-30T14:17:43.124Z,4.12
2019-04-30T14:20:09.697Z,4.67
2019-04-30T14:22:36.530Z,4.55
2019-04-30T14:25:03.121Z,4.12
2019-04-30T14:27:29.688Z,3.60
2019-04-30T14:29:56.293Z,8.95
2019-04-30T14:32:22.868Z,6.55
2019-04-30T14:34:50.711Z,7.05
2019-04-30T14:37:17.444Z,5.75
2019-04-30T14:39:44.209Z,5.12
2019-04-30T14:42:12.178Z,4.15
2019-04-30T14:44:40.372Z,5.30
2019-04-30T14:47:11.627Z,5.65
2019-04-30T14:49:35.971Z,4.45
2019-04-30T14:52:02.943Z,5.12
2019-04-30T14:54:32.093Z,4.95
2019-04-30T14:56:59.383Z,4.92
2019-04-30T14:59:26.016Z,4.40
2019-04-30T15:01:52.634Z,4.12
2019-04-30T15:04:20.543Z,4.95
2019-04-30T15:06:48.723Z,4.25
2019-04-30T15:09:15.517Z,4.12
2019-04-30T15:11:42.129Z,4.10
2019-04-30T15:14:08.714Z,3.77
2019-04-30T15:16:35.327Z,3.22
2019-04-30T15:19:01.893Z,3.70
2019-04-30T15:21:28.500Z,3.95
2019-04-30T15:23:58.704Z,3.90
2019-04-30T15:26:25.197Z,4.03
2019-04-30T15:28:51.709Z,4.92
2019-04-30T15:31:18.512Z,3.95
2019-04-30T15:33:45.149Z,4.12
2019-04-30T15:36:11.714Z,4.25
2019-04-30T15:38:38.391Z,4.30
2019-04-30T15:41:04.963Z,4.72
2019-04-30T15:43:32.499Z,4.35
2019-04-30T15:45:59.065Z,5.22
2019-04-30T15:48:25.703Z,4.17
2019-04-30T15:50:52.279Z,4.85
2019-04-30T15:53:19.341Z,5.62
2019-04-30T15:55:46.414Z,5.33
2019-04-30T15:58:13.028Z,4.83
2019-04-30T16:00:39.619Z,5.22
2019-04-30T16:03:06.232Z,5.10
2019-04-30T16:05:32.812Z,4.12
2019-04-30T16:07:59.430Z,4.55
2019-04-30T16:10:25.999Z,4.55
2019-04-30T16:12:52.621Z,4.40
2019-04-30T16:15:19.197Z,5.00
2019-04-30T16:17:45.807Z,4.70
2019-04-30T16:20:12.380Z,4.90
2019-04-30T16:22:39.176Z,4.47
2019-04-30T16:25:05.848Z,4.28
2019-04-30T16:27:32.463Z,5.37
2019-04-30T16:29:59.523Z,5.25
2019-04-30T16:32:26.187Z,4.40
2019-04-30T16:34:52.786Z,4.67
2019-04-30T16:37:20.209Z,4.85
2019-04-30T16:39:47.098Z,4.50
2019-04-30T16:42:13.686Z,4.55
2019-04-30T16:44:40.298Z,5.12
2019-04-30T16:47:13.449Z,5.20
2019-04-30T16:49:35.231Z,5.22
2019-04-30T16:52:01.788Z,5.67
2019-04-30T16:54:28.595Z,5.10
2019-04-30T16:57:03.438Z,5.05
2019-04-30T16:59:23.574Z,5.85
2019-04-30T17:01:57.167Z,6.10
2019-04-30T17:04:19.251Z,7.50
2019-04-30T17:06:46.018Z,7.25
2019-04-30T17:09:12.633Z,6.80
2019-04-30T17:11:39.211Z,6.62
2019-04-30T17:14:05.819Z,7.95
2019-04-30T17:16:32.402Z,7.20
2019-04-30T17:18:59.151Z,7.65
2019-04-30T17:21:25.779Z,9.03
2019-04-30T17:23:52.386Z,7.70
2019-04-30T17:26:18.956Z,6.60
2019-04-30T17:28:45.572Z,6.72
2019-04-30T17:31:13.530Z,6.60
2019-04-30T17:33:40.318Z,7.60
2019-04-30T17:36:08.363Z,6.33
2019-04-30T17:38:35.225Z,6.58
2019-04-30T17:41:01.821Z,7.80
2019-04-30T17:43:28.401Z,8.30
2019-04-30T17:45:55.008Z,7.22
2019-04-30T17:48:21.578Z,8.80
2019-04-30T17:50:49.738Z,7.30
2019-04-30T17:53:16.530Z,6.90
2019-04-30T17:55:43.140Z,7.37
2019-04-30T17:58:09.957Z,7.83
2019-04-30T18:00:36.601Z,7.50
2019-04-30T18:03:03.187Z,7.83
2019-04-30T18:05:29.800Z,7.28
2019-04-30T18:07:56.371Z,7.75
2019-04-30T18:10:22.980Z,7.95
2019-04-30T18:12:49.553Z,7.08
2019-04-30T18:15:16.152Z,6.80
2019-04-30T18:17:42.852Z,7.80
2019-04-30T18:20:10.930Z,6.70
2019-04-30T18:22:37.639Z,7.42
2019-04-30T18:25:04.228Z,6.12
2019-04-30T18:27:43.066Z,6.47
2019-04-30T18:29:59.108Z,6.10
2019-04-30T18:32:25.715Z,6.10
2019-04-30T18:34:52.298Z,5.80
2019-04-30T18:37:18.987Z,5.30
2019-04-30T18:39:45.555Z,5.78
2019-04-30T18:42:12.184Z,5.50
2019-04-30T18:44:38.770Z,4.92
2019-04-30T18:47:05.372Z,6.17
2019-04-30T18:49:31.941Z,6.65
2019-04-30T18:51:59.034Z,6.35
2019-04-30T18:54:25.805Z,7.33
2019-04-30T18:56:52.433Z,8.10
2019-04-30T18:59:19.637Z,7.03
2019-04-30T19:01:46.421Z,7.92
2019-04-30T19:04:13.002Z,8.20
2019-04-30T19:06:39.591Z,7.92
2019-04-30T19:09:06.162Z,9.60
2019-04-30T19:11:32.764Z,8.90
2019-04-30T19:13:59.355Z,9.45
2019-04-30T19:16:26.057Z,8.65
2019-04-30T19:18:53.689Z,7.65
2019-04-30T19:21:20.264Z,7.45
2019-04-30T19:23:48.693Z,7.28
2019-04-30T19:26:15.333Z,6.95
2019-04-30T19:28:41.932Z,7.15
2019-04-30T19:31:09.183Z,7.60
2019-04-30T19:33:38.819Z,8.33
2019-04-30T19:36:05.166Z,8.18
2019-04-30T19:38:31.770Z,8.10
2019-04-30T19:40:58.345Z,8.35
2019-04-30T19:43:24.933Z,8.18
2019-04-30T19:45:51.509Z,6.65
2019-04-30T19:48:18.127Z,7.90
2019-04-30T19:50:44.882Z,8.38
2019-04-30T19:53:11.478Z,7.70
2019-04-30T19:55:39.386Z,7.47
2019-04-30T19:58:06.149Z,8.50
2019-04-30T20:00:32.728Z,10.80
2019-04-30T20:02:59.901Z,10.08
2019-04-30T20:05:28.579Z,10.45
2019-04-30T20:07:55.035Z,8.70
2019-04-30T20:10:21.614Z,10.18
2019-04-30T20:12:49.714Z,9.40
2019-04-30T20:15:21.557Z,8.90
2019-04-30T20:17:44.914Z,7.83
2019-04-30T20:20:11.494Z,6.60
2019-04-30T20:22:38.919Z,8.55
2019-04-30T20:25:05.653Z,6.65
2019-04-30T20:27:32.239Z,6.62
2019-04-30T20:29:59.268Z,7.40
2019-04-30T20:32:33.985Z,6.53
2019-04-30T20:34:54.301Z,7.22
2019-04-30T20:37:20.867Z,6.60
2019-04-30T20:39:49.284Z,5.92
2019-04-30T20:42:15.787Z,6.90
2019-04-30T20:44:42.406Z,5.85
2019-04-30T20:47:09.067Z,6.40
2019-04-30T20:49:35.776Z,6.53
2019-04-30T20:52:02.349Z,7.28
2019-04-30T20:54:29.209Z,7.22
2019-04-30T20:56:55.910Z,7.50
2019-04-30T20:59:22.501Z,7.22
2019-04-30T21:01:49.156Z,7.78
2019-04-30T21:04:15.758Z,10.50
2019-04-30T21:06:42.328Z,7.83
2019-04-30T21:09:08.977Z,8.03
2019-04-30T21:11:35.590Z,8.55
2019-04-30T21:14:03.481Z,7.62
2019-04-30T21:16:30.065Z,8.00
2019-04-30T21:18:56.678Z,10.38
2019-04-30T21:21:23.250Z,7.20
2019-04-30T21:23:49.857Z,6.78
2019-04-30T21:26:16.767Z,7.20
2019-04-30T21:28:43.368Z,6.80
2019-04-30T21:31:10.021Z,6.67
2019-04-30T21:33:38.455Z,7.10
2019-04-30T21:36:04.932Z,6.87
2019-04-30T21:38:31.685Z,7.65
2019-04-30T21:40:58.784Z,7.67
2019-04-30T21:43:26.621Z,6.87
2019-04-30T21:45:53.229Z,8.18
2019-04-30T21:48:19.808Z,9.25
2019-04-30T21:50:46.420Z,7.10
2019-04-30T21:53:13.003Z,6.85
2019-04-30T21:55:39.997Z,8.10
2019-04-30T21:58:06.676Z,7.30
2019-04-30T22:00:33.293Z,7.55
2019-04-30T22:02:59.880Z,6.70
2019-04-30T22:05:26.571Z,7.08
2019-04-30T22:07:53.146Z,7.45
2019-04-30T22:10:19.760Z,7.22
2019-04-30T22:12:46.333Z,7.72
2019-04-30T22:15:12.952Z,6.35
2019-04-30T22:17:39.526Z,6.87
2019-04-30T22:20:07.865Z,6.90
2019-04-30T22:22:34.436Z,5.80
2019-04-30T22:25:01.113Z,8.30
2019-04-30T22:27:27.679Z,7.67
2019-04-30T22:29:54.266Z,9.78
2019-04-30T22:32:20.848Z,5.70
2019-04-30T22:34:47.454Z,6.17
2019-04-30T22:37:14.021Z,6.40
2019-04-30T22:39:40.659Z,5.85
2019-04-30T22:42:08.864Z,5.55
2019-04-30T22:44:35.587Z,7.00
2019-04-30T22:47:02.194Z,6.08
2019-04-30T22:49:28.766Z,6.15
2019-04-30T22:51:55.372Z,8.23
2019-04-30T22:54:21.949Z,7.22
2019-04-30T22:56:48.561Z,5.70
2019-04-30T22:59:15.132Z,6.45
2019-04-30T23:01:41.730Z,6.78
2019-04-30T23:04:08.390Z,5.87
2019-04-30T23:06:35.000Z,8.20
2019-04-30T23:09:01.578Z,6.60
2019-04-30T23:11:28.175Z,5.78
2019-04-30T23:13:54.752Z,6.03
2019-04-30T23:16:21.424Z,7.40
2019-04-30T23:18:48.003Z,6.35
2019-04-30T23:21:14.609Z,5.47
2019-04-30T23:23:41.250Z,6.17
2019-04-30T23:26:07.858Z,8.40
2019-04-30T23:28:34.433Z,5.78
2019-04-30T23:31:01.040Z,6.17
2019-04-30T23:33:27.650Z,5.78
2019-04-30T23:35:54.257Z,5.17
2019-04-30T23:38:20.834Z,5.33
2019-04-30T23:40:47.436Z,5.30
2019-04-30T23:43:14.010Z,5.60
2019-04-30T23:45:40.611Z,6.20
2019-04-30T23:48:07.186Z,5.42
2019-04-30T23:50:33.761Z,5.47
2019-04-30T23:53:00.375Z,5.75
2019-04-30T23:55:26.952Z,6.85
2019-04-30T23:57:53.593Z,6.05
